Time;durP1;ratioP1;P1;durP2;ratioP2;P2;SDS_P1;SDS_P2;PMS_P1;PMS_P2;Temp;Humidity;BMP_temperature;BMP_pressure;BME280_temperature;BME280_humidity;BME280_pressure;Samples;Min_cycle;Max_cycle;Signal;HPM_P1;HPM_P2
2021/11/25 00:02:15;;;;;;;4.00;3.59;;;;;;;18.82;49.52;100097.94;;;;-51
2021/11/25 00:05:15;;;;;;;4.23;3.30;;;;;;;18.80;49.51;100093.39;;;;-51
2021/11/25 00:08:17;;;;;;;3.87;3.48;;;;;;;18.79;49.39;100089.64;;;;-52
2021/11/25 00:11:15;;;;;;;3.97;3.59;;;;;;;18.77;49.31;100090.98;;;;-52
2021/11/25 00:14:15;;;;;;;3.84;3.29;;;;;;;18.75;49.40;100083.34;;;;-58
2021/11/25 00:17:15;;;;;;;3.78;3.43;;;;;;;18.75;49.40;100080.99;;;;-58
2021/11/25 00:20:17;;;;;;;3.36;3.06;;;;;;;18.74;49.65;100076.59;;;;-58
2021/11/25 00:23:16;;;;;;;3.47;3.17;;;;;;;18.72;49.17;100066.20;;;;-58
2021/11/25 00:26:15;;;;;;;4.16;3.23;;;;;;;18.71;49.59;100060.11;;;;-58
2021/11/25 00:29:15;;;;;;;4.02;3.61;;;;;;;18.69;49.58;100052.39;;;;-58
2021/11/25 00:32:15;;;;;;;3.67;3.28;;;;;;;18.69;49.65;100045.50;;;;-58
2021/11/25 00:35:15;;;;;;;3.63;3.31;;;;;;;18.67;49.43;100043.78;;;;-58
2021/11/25 00:38:15;;;;;;;3.51;3.21;;;;;;;18.65;49.47;100037.70;;;;-52
2021/11/25 00:41:15;;;;;;;3.71;3.37;;;;;;;18.65;49.60;100038.18;;;;-52
2021/11/25 00:44:15;;;;;;;3.70;3.34;;;;;;;18.64;49.74;100035.03;;;;-52
2021/11/25 00:47:15;;;;;;;3.53;3.23;;;;;;;18.62;49.62;100035.17;;;;-52
2021/11/25 00:50:15;;;;;;;3.71;3.30;;;;;;;18.60;49.57;100035.02;;;;-52
2021/11/25 00:53:16;;;;;;;3.55;3.25;;;;;;;18.60;49.52;100033.95;;;;-52
2021/11/25 00:56:15;;;;;;;3.82;3.42;;;;;;;18.58;49.66;100032.33;;;;-52
2021/11/25 00:59:15;;;;;;;3.83;3.20;;;;;;;18.57;49.46;100025.98;;;;-52
2021/11/25 01:02:15;;;;;;;3.45;3.15;;;;;;;18.56;49.66;100025.66;;;;-58
2021/11/25 01:05:16;;;;;;;3.80;3.40;;;;;;;18.55;49.78;100024.13;;;;-58
2021/11/25 01:08:15;;;;;;;3.70;3.33;;;;;;;18.54;49.74;100026.87;;;;-51
2021/11/25 01:11:15;;;;;;;3.56;3.26;;;;;;;18.52;49.63;100025.09;;;;-58
2021/11/25 01:14:16;;;;;;;3.52;3.22;;;;;;;18.51;49.65;100030.93;;;;-58
2021/11/25 01:17:15;;;;;;;3.83;3.43;;;;;;;18.48;49.75;100026.20;;;;-52
2021/11/25 01:20:15;;;;;;;3.81;3.41;;;;;;;18.48;49.68;100027.91;;;;-52
2021/11/25 01:23:15;;;;;;;3.89;3.34;;;;;;;18.47;49.56;100019.45;;;;-52
2021/11/25 01:26:15;;;;;;;3.51;3.21;;;;;;;18.46;49.58;100023.43;;;;-52
2021/11/25 01:29:15;;;;;;;3.56;3.19;;;;;;;18.46;49.78;100029.03;;;;-52
2021/11/25 01:32:15;;;;;;;3.76;3.33;;;;;;;18.44;49.57;100023.43;;;;-58
2021/11/25 01:35:15;;;;;;;3.83;3.43;;;;;;;18.43;49.64;100024.16;;;;-59
2021/11/25 01:38:15;;;;;;;3.59;3.29;;;;;;;18.42;49.67;100027.80;;;;-52
2021/11/25 01:41:17;;;;;;;3.53;3.19;;;;;;;18.41;49.83;100030.56;;;;-51
2021/11/25 01:44:15;;;;;;;3.47;3.17;;;;;;;18.41;49.56;100034.84;;;;-52
2021/11/25 01:47:15;;;;;;;3.69;3.39;;;;;;;18.40;49.83;100034.28;;;;-52
2021/11/25 01:50:15;;;;;;;3.67;3.37;;;;;;;18.37;49.63;100032.98;;;;-52
2021/11/25 01:53:15;;;;;;;3.60;3.25;;;;;;;18.37;49.51;100026.01;;;;-52
2021/11/25 01:56:16;;;;;;;3.45;3.15;;;;;;;18.36;49.88;100027.45;;;;-53
2021/11/25 01:59:15;;;;;;;3.47;3.17;;;;;;;18.35;49.82;100029.41;;;;-52
2021/11/25 02:02:15;;;;;;;3.53;3.18;;;;;;;18.34;49.73;100025.27;;;;-52
2021/11/25 02:05:15;;;;;;;3.42;3.12;;;;;;;18.34;49.74;100017.63;;;;-58
2021/11/25 02:08:15;;;;;;;3.43;3.05;;;;;;;18.32;49.64;100012.27;;;;-52
2021/11/25 02:11:15;;;;;;;3.47;3.17;;;;;;;18.31;49.83;100010.81;;;;-52
2021/11/25 02:14:15;;;;;;;3.43;3.13;;;;;;;18.30;49.87;100006.66;;;;-52
2021/11/25 02:17:15;;;;;;;4.05;3.59;;;;;;;18.30;49.73;100005.52;;;;-58
2021/11/25 02:20:15;;;;;;;3.46;3.16;;;;;;;18.29;49.81;99998.96;;;;-58
2021/11/25 02:23:15;;;;;;;3.52;3.21;;;;;;;18.27;49.83;99997.24;;;;-51
2021/11/25 02:26:15;;;;;;;3.38;3.08;;;;;;;18.27;49.77;99990.44;;;;-51
2021/11/25 02:29:15;;;;;;;3.56;3.09;;;;;;;18.26;49.88;99989.20;;;;-52
2021/11/25 02:32:15;;;;;;;3.48;3.18;;;;;;;18.25;49.70;99988.23;;;;-52
2021/11/25 02:35:15;;;;;;;3.51;3.21;;;;;;;18.24;49.79;99981.27;;;;-58
2021/11/25 02:38:15;;;;;;;3.40;3.10;;;;;;;18.23;49.78;99973.62;;;;-58
2021/11/25 02:41:15;;;;;;;3.63;3.30;;;;;;;18.22;49.97;99967.39;;;;-58
2021/11/25 02:44:15;;;;;;;3.99;3.35;;;;;;;18.21;49.94;99959.09;;;;-57
2021/11/25 02:47:15;;;;;;;3.51;3.21;;;;;;;18.20;49.90;99949.68;;;;-58
2021/11/25 02:50:15;;;;;;;3.36;3.06;;;;;;;18.20;49.94;99946.84;;;;-58
2021/11/25 02:53:15;;;;;;;3.74;3.33;;;;;;;18.20;49.74;99943.92;;;;-58
2021/11/25 02:56:15;;;;;;;3.53;3.23;;;;;;;18.19;49.89;99946.12;;;;-58
2021/11/25 02:59:15;;;;;;;3.28;2.98;;;;;;;18.18;50.01;99943.94;;;;-58
2021/11/25 03:02:15;;;;;;;3.50;3.20;;;;;;;18.16;50.06;99946.36;;;;-57
2021/11/25 03:05:15;;;;;;;3.39;3.09;;;;;;;18.16;49.93;99947.83;;;;-58
2021/11/25 03:08:15;;;;;;;3.90;3.26;;;;;;;18.16;49.95;99944.48;;;;-58
2021/11/25 03:11:15;;;;;;;3.49;3.18;;;;;;;18.14;50.03;99944.98;;;;-58
2021/11/25 03:14:15;;;;;;;3.47;3.17;;;;;;;18.13;49.96;99950.95;;;;-58
2021/11/25 03:17:15;;;;;;;3.51;3.21;;;;;;;18.13;49.99;99942.20;;;;-58
2021/11/25 03:20:15;;;;;;;3.54;3.24;;;;;;;18.13;50.08;99937.02;;;;-58
2021/11/25 03:23:15;;;;;;;3.59;3.29;;;;;;;18.12;50.01;99934.43;;;;-58
2021/11/25 03:26:15;;;;;;;3.34;3.04;;;;;;;18.12;49.93;99938.17;;;;-58
2021/11/25 03:29:15;;;;;;;3.64;3.34;;;;;;;18.10;50.02;99935.64;;;;-58
2021/11/25 03:32:15;;;;;;;3.61;3.29;;;;;;;18.10;49.85;99928.59;;;;-58
2021/11/25 03:35:15;;;;;;;3.79;3.43;;;;;;;18.09;49.96;99928.97;;;;-58
2021/11/25 03:38:15;;;;;;;3.43;3.13;;;;;;;18.09;50.08;99925.08;;;;-58
2021/11/25 03:41:15;;;;;;;3.45;3.15;;;;;;;18.09;49.89;99921.35;;;;-58
2021/11/25 03:44:15;;;;;;;3.50;3.20;;;;;;;18.08;50.01;99924.36;;;;-58
2021/11/25 03:47:15;;;;;;;3.52;3.22;;;;;;;18.07;50.01;99924.20;;;;-58
2021/11/25 03:50:15;;;;;;;3.35;3.05;;;;;;;18.06;50.05;99924.67;;;;-58
2021/11/25 03:53:15;;;;;;;3.57;3.23;;;;;;;18.06;50.08;99926.05;;;;-57
2021/11/25 03:56:15;;;;;;;3.55;3.19;;;;;;;18.06;49.86;99936.11;;;;-58
2021/11/25 03:59:15;;;;;;;3.37;3.07;;;;;;;18.04;50.00;99936.34;;;;-58
2021/11/25 04:02:15;;;;;;;3.61;3.31;;;;;;;18.04;50.01;99933.75;;;;-58
2021/11/25 04:05:15;;;;;;;3.33;3.03;;;;;;;18.03;50.05;99930.24;;;;-58
2021/11/25 04:08:15;;;;;;;3.43;3.13;;;;;;;18.03;50.07;99928.73;;;;-57
2021/11/25 04:11:15;;;;;;;3.48;3.16;;;;;;;18.01;50.04;99922.23;;;;-58
2021/11/25 04:14:15;;;;;;;3.36;3.06;;;;;;;18.02;50.03;99927.25;;;;-58
2021/11/25 04:17:18;;;;;;;3.69;3.37;;;;;;;18.01;49.98;99933.64;;;;-58
2021/11/25 04:20:15;;;;;;;3.46;3.09;;;;;;;18.00;50.08;99932.03;;;;-58
2021/11/25 04:23:15;;;;;;;3.47;3.17;;;;;;;17.99;49.95;99931.63;;;;-58
2021/11/25 04:26:15;;;;;;;4.47;3.29;;;;;;;17.99;50.04;99921.42;;;;-57
2021/11/25 04:29:15;;;;;;;3.57;3.27;;;;;;;17.98;50.05;99915.48;;;;-58
2021/11/25 04:35:31;;;;;;;3.79;3.41;;;;;;;17.98;49.96;99909.00;;;;-58
2021/11/25 04:38:16;;;;;;;3.41;3.11;;;;;;;17.96;50.06;99906.47;;;;-57
2021/11/25 04:41:15;;;;;;;3.43;3.13;;;;;;;17.96;50.01;99909.06;;;;-58
2021/11/25 04:44:15;;;;;;;3.87;3.22;;;;;;;17.96;50.07;99905.75;;;;-58
2021/11/25 04:47:15;;;;;;;3.28;2.98;;;;;;;17.95;50.04;99903.13;;;;-58
2021/11/25 04:50:15;;;;;;;3.44;3.14;;;;;;;17.94;50.04;99904.12;;;;-57
2021/11/25 04:53:15;;;;;;;3.57;3.25;;;;;;;17.94;50.11;99907.77;;;;-58
2021/11/25 04:56:15;;;;;;;3.60;3.30;;;;;;;17.93;50.08;99911.16;;;;-57
2021/11/25 04:59:15;;;;;;;3.31;3.01;;;;;;;17.92;50.04;99912.38;;;;-57
2021/11/25 05:02:15;;;;;;;3.56;3.26;;;;;;;17.92;50.05;99918.30;;;;-52
2021/11/25 05:05:16;;;;;;;3.29;2.99;;;;;;;17.91;49.96;99920.41;;;;-53
2021/11/25 05:08:15;;;;;;;4.15;3.17;;;;;;;17.90;50.02;99922.41;;;;-58
2021/11/25 05:11:16;;;;;;;3.83;3.02;;;;;;;17.90;50.05;99923.14;;;;-51
2021/11/25 05:14:15;;;;;;;3.57;3.27;;;;;;;17.90;50.06;99927.03;;;;-58
2021/11/25 05:17:15;;;;;;;3.38;3.08;;;;;;;17.89;50.06;99930.45;;;;-57
2021/11/25 05:20:15;;;;;;;3.36;3.06;;;;;;;17.88;50.03;99923.22;;;;-57
2021/11/25 05:23:15;;;;;;;3.54;3.24;;;;;;;17.88;50.07;99922.98;;;;-57
2021/11/25 05:26:15;;;;;;;9.78;8.02;;;;;;;17.60;44.55;99920.72;;;;-56
2021/11/25 05:29:16;;;;;;;12.95;10.19;;;;;;;17.30;42.96;99918.98;;;;-51
2021/11/25 05:32:16;;;;;;;12.91;10.15;;;;;;;17.16;43.07;99916.08;;;;-51
2021/11/25 05:35:15;;;;;;;14.11;9.52;;;;;;;17.22;44.37;99913.91;;;;-51
2021/11/25 05:38:16;;;;;;;9.73;7.91;;;;;;;17.28;45.78;99907.47;;;;-58
2021/11/25 05:41:15;;;;;;;9.39;7.85;;;;;;;17.34;46.35;99909.22;;;;-58
2021/11/25 05:44:15;;;;;;;9.87;7.44;;;;;;;17.38;46.87;99916.37;;;;-51
2021/11/25 05:47:16;;;;;;;8.63;7.17;;;;;;;17.42;47.13;99917.20;;;;-51
2021/11/25 05:50:17;;;;;;;8.65;6.72;;;;;;;17.42;47.17;99911.20;;;;-51
2021/11/25 05:53:18;;;;;;;8.27;6.59;;;;;;;17.44;47.39;99914.70;;;;-51
2021/11/25 05:56:15;;;;;;;8.02;6.33;;;;;;;17.46;47.57;99912.45;;;;-58
2021/11/25 05:59:15;;;;;;;7.22;5.94;;;;;;;17.47;47.71;99912.88;;;;-58
2021/11/25 06:02:16;;;;;;;6.86;5.68;;;;;;;17.49;47.69;99912.13;;;;-58
2021/11/25 06:05:15;;;;;;;6.23;5.26;;;;;;;17.50;47.76;99909.80;;;;-58
2021/11/25 06:08:15;;;;;;;7.01;5.52;;;;;;;17.50;47.85;99909.55;;;;-58
2021/11/25 06:11:15;;;;;;;6.70;5.55;;;;;;;17.51;48.04;99909.95;;;;-51
2021/11/25 06:14:15;;;;;;;6.41;5.23;;;;;;;17.52;48.06;99907.78;;;;-59
2021/11/25 06:17:15;;;;;;;6.23;5.07;;;;;;;17.53;48.10;99905.19;;;;-58
2021/11/25 06:20:15;;;;;;;5.63;5.03;;;;;;;17.54;48.15;99907.64;;;;-58
2021/11/25 06:23:16;;;;;;;5.50;4.86;;;;;;;17.54;48.24;99907.64;;;;-58
2021/11/25 06:26:15;;;;;;;5.69;4.95;;;;;;;17.55;48.27;99910.63;;;;-51
2021/11/25 06:29:15;;;;;;;5.28;4.42;;;;;;;17.55;48.24;99898.80;;;;-51
2021/11/25 06:32:16;;;;;;;5.53;4.87;;;;;;;17.55;48.41;99896.13;;;;-51
2021/11/25 06:35:15;;;;;;;5.14;4.62;;;;;;;17.55;48.37;99894.10;;;;-58
2021/11/25 06:38:18;;;;;;;5.22;4.26;;;;;;;17.56;48.35;99903.11;;;;-59
2021/11/25 06:41:15;;;;;;;5.12;4.42;;;;;;;17.57;48.35;99899.78;;;;-58
2021/11/25 06:44:15;;;;;;;4.50;4.09;;;;;;;17.56;48.45;99899.80;;;;-58
2021/11/25 06:47:15;;;;;;;5.07;4.31;;;;;;;17.57;48.42;99898.48;;;;-59
2021/11/25 06:50:15;;;;;;;5.31;4.53;;;;;;;17.56;48.57;99905.62;;;;-51
2021/11/25 06:53:15;;;;;;;4.77;4.19;;;;;;;17.55;48.53;99907.88;;;;-51
2021/11/25 06:56:15;;;;;;;4.58;4.12;;;;;;;17.56;48.52;99908.86;;;;-58
2021/11/25 06:59:15;;;;;;;5.81;4.18;;;;;;;17.55;48.60;99908.92;;;;-58
2021/11/25 07:02:15;;;;;;;5.12;4.34;;;;;;;17.55;48.74;99911.77;;;;-59
2021/11/25 07:05:15;;;;;;;4.66;4.13;;;;;;;17.56;48.62;99913.97;;;;-58
2021/11/25 07:08:15;;;;;;;4.49;4.09;;;;;;;17.56;48.65;99918.50;;;;-51
2021/11/25 07:11:15;;;;;;;4.62;4.16;;;;;;;17.55;48.71;99924.08;;;;-51
2021/11/25 07:14:15;;;;;;;4.31;3.90;;;;;;;17.56;48.66;99930.33;;;;-59
2021/11/25 07:17:15;;;;;;;4.44;4.04;;;;;;;17.55;48.77;99932.09;;;;-58
2021/11/25 07:20:15;;;;;;;4.33;3.86;;;;;;;17.56;48.77;99928.72;;;;-58
2021/11/25 07:23:15;;;;;;;4.61;3.90;;;;;;;17.56;48.82;99926.77;;;;-51
2021/11/25 07:26:15;;;;;;;4.36;3.96;;;;;;;17.56;48.80;99923.13;;;;-51
2021/11/25 07:29:17;;;;;;;4.42;4.01;;;;;;;17.56;48.85;99932.36;;;;-58
2021/11/25 07:32:15;;;;;;;4.63;3.85;;;;;;;17.55;48.85;99935.66;;;;-58
2021/11/25 07:35:17;;;;;;;4.31;3.91;;;;;;;17.56;48.80;99942.16;;;;-59
2021/11/25 07:38:16;;;;;;;7.33;3.87;;;;;;;17.55;49.32;99940.45;;;;-55
2021/11/25 07:41:15;;;;;;;3.99;3.59;;;;;;;17.57;49.30;99932.34;;;;-55
2021/11/25 07:44:15;;;;;;;3.99;3.59;;;;;;;17.57;49.18;99926.68;;;;-54
2021/11/25 07:47:19;;;;;;;4.01;3.42;;;;;;;17.58;49.24;99930.10;;;;-53
2021/11/25 07:50:15;;;;;;;4.21;3.61;;;;;;;17.60;49.21;99935.55;;;;-53
2021/11/25 07:53:15;;;;;;;4.15;3.70;;;;;;;17.62;49.39;99937.09;;;;-48
2021/11/25 07:56:15;;;;;;;3.83;3.39;;;;;;;17.65;49.60;99936.29;;;;-49
2021/11/25 07:59:15;;;;;;;4.07;3.33;;;;;;;17.67;49.53;99930.30;;;;-56
2021/11/25 08:02:16;;;;;;;3.75;3.35;;;;;;;17.71;49.66;99924.49;;;;-48
2021/11/25 08:05:15;;;;;;;6.95;3.85;;;;;;;17.74;49.00;99922.82;;;;-49
2021/11/25 08:08:15;;;;;;;6.09;4.09;;;;;;;17.77;49.17;99923.55;;;;-54
2021/11/25 08:11:15;;;;;;;4.33;3.48;;;;;;;17.80;49.34;99927.69;;;;-48
2021/11/25 08:14:15;;;;;;;5.22;3.00;;;;;;;17.82;49.46;99930.13;;;;-49
2021/11/25 08:17:15;;;;;;;4.09;3.04;;;;;;;17.84;49.44;99931.63;;;;-53
2021/11/25 08:20:16;;;;;;;3.69;3.14;;;;;;;17.86;49.46;99928.72;;;;-54
2021/11/25 08:23:15;;;;;;;5.29;2.92;;;;;;;17.88;49.45;99926.87;;;;-53
2021/11/25 08:26:15;;;;;;;3.81;3.13;;;;;;;17.90;49.41;99932.31;;;;-54
2021/11/25 08:29:15;;;;;;;4.59;3.27;;;;;;;17.91;49.50;99936.86;;;;-53
2021/11/25 08:32:15;;;;;;;3.96;2.99;;;;;;;17.93;49.55;99941.14;;;;-54
2021/11/25 08:35:15;;;;;;;3.85;3.17;;;;;;;17.93;49.63;99937.52;;;;-48
2021/11/25 08:38:15;;;;;;;3.80;3.16;;;;;;;17.94;49.67;99937.19;;;;-54
2021/11/25 08:41:15;;;;;;;3.36;2.99;;;;;;;17.96;49.63;99945.14;;;;-53
2021/11/25 08:44:15;;;;;;;3.45;3.13;;;;;;;17.96;49.60;99946.52;;;;-49
2021/11/25 08:47:15;;;;;;;3.55;3.00;;;;;;;17.97;49.63;99948.14;;;;-48
2021/11/25 08:50:15;;;;;;;3.48;3.18;;;;;;;17.96;49.69;99950.33;;;;-48
2021/11/25 08:53:15;;;;;;;3.27;2.97;;;;;;;17.97;49.73;99950.43;;;;-48
2021/11/25 08:56:15;;;;;;;4.44;3.16;;;;;;;17.98;49.67;99945.48;;;;-48
2021/11/25 08:59:15;;;;;;;3.31;3.00;;;;;;;17.98;49.62;99945.97;;;;-48
2021/11/25 09:02:15;;;;;;;5.78;3.19;;;;;;;18.00;50.00;99944.19;;;;-54
2021/11/25 09:05:15;;;;;;;8.14;3.15;;;;;;;18.03;50.27;99939.00;;;;-57
2021/11/25 09:08:15;;;;;;;3.38;3.08;;;;;;;18.06;50.72;99932.86;;;;-50
2021/11/25 09:11:15;;;;;;;3.18;2.88;;;;;;;18.09;50.84;99939.35;;;;-54
2021/11/25 09:14:15;;;;;;;5.11;3.43;;;;;;;18.15;50.30;99939.63;;;;-52
2021/11/25 09:17:15;;;;;;;4.10;3.31;;;;;;;18.18;50.50;99932.42;;;;-51
2021/11/25 09:20:15;;;;;;;4.39;3.14;;;;;;;18.23;50.42;99923.83;;;;-52
2021/11/25 09:23:15;;;;;;;3.21;2.87;;;;;;;18.28;50.45;99922.64;;;;-50
2021/11/25 09:26:16;;;;;;;3.72;3.08;;;;;;;18.33;50.44;99917.53;;;;-49
2021/11/25 09:29:16;;;;;;;3.51;3.20;;;;;;;18.39;50.46;99920.72;;;;-58
2021/11/25 09:32:15;;;;;;;3.60;3.01;;;;;;;18.44;50.54;99920.88;;;;-57
2021/11/25 09:35:15;;;;;;;3.33;3.03;;;;;;;18.48;50.61;99913.66;;;;-50
2021/11/25 09:38:15;;;;;;;3.38;2.89;;;;;;;18.54;50.62;99911.81;;;;-57
2021/11/25 09:41:15;;;;;;;3.57;3.01;;;;;;;18.58;50.54;99908.33;;;;-55
2021/11/25 09:44:15;;;;;;;3.29;2.99;;;;;;;18.64;50.59;99909.31;;;;-51
2021/11/25 09:47:15;;;;;;;3.17;2.87;;;;;;;18.69;50.60;99913.77;;;;-47
2021/11/25 09:50:15;;;;;;;4.66;3.41;;;;;;;18.74;50.53;99908.11;;;;-51
2021/11/25 09:53:15;;;;;;;3.11;2.84;;;;;;;18.78;50.55;99906.27;;;;-50
2021/11/25 09:56:15;;;;;;;3.30;3.00;;;;;;;18.83;50.62;99914.05;;;;-52
2021/11/25 09:59:15;;;;;;;3.31;3.01;;;;;;;18.86;50.62;99915.75;;;;-51
2021/11/25 10:02:16;;;;;;;3.18;2.88;;;;;;;18.91;50.59;99906.27;;;;-50
2021/11/25 10:05:15;;;;;;;4.43;2.97;;;;;;;18.96;50.65;99901.95;;;;-47
2021/11/25 10:08:15;;;;;;;3.22;2.92;;;;;;;19.00;50.49;99904.55;;;;-53
2021/11/25 10:11:15;;;;;;;3.63;3.14;;;;;;;19.03;50.54;99908.78;;;;-47
2021/11/25 10:14:15;;;;;;;3.13;2.83;;;;;;;19.08;50.79;99909.02;;;;-48
2021/11/25 10:17:15;;;;;;;4.32;3.29;;;;;;;19.13;50.44;99920.55;;;;-51
2021/11/25 10:20:19;;;;;;;4.30;2.91;;;;;;;19.12;50.16;99927.94;;;;-57
2021/11/25 10:23:17;;;;;;;3.10;2.80;;;;;;;19.13;50.07;99924.84;;;;-55
2021/11/25 10:26:16;;;;;;;3.19;2.89;;;;;;;19.13;50.06;99928.41;;;;-57
2021/11/25 10:29:15;;;;;;;3.36;3.05;;;;;;;19.14;50.05;99926.64;;;;-49
2021/11/25 10:32:15;;;;;;;3.37;3.07;;;;;;;19.14;50.08;99923.31;;;;-49
2021/11/25 10:35:24;;;;;;;3.56;3.26;;;;;;;19.14;49.97;99923.72;;;;-51
2021/11/25 10:38:36;;;;;;;6.27;2.95;;;;;;;19.19;50.22;99921.66;;;;-55
2021/11/25 10:41:16;;;;;;;5.52;3.04;;;;;;;19.22;49.92;99919.57;;;;-47
2021/11/25 10:44:16;;;;;;;5.03;3.23;;;;;;;19.24;50.00;99907.53;;;;-49
2021/11/25 10:47:15;;;;;;;4.33;3.21;;;;;;;19.24;49.73;99914.45;;;;-49
2021/11/25 10:50:15;;;;;;;4.88;3.23;;;;;;;19.24;49.61;99913.07;;;;-49
2021/11/25 10:53:15;;;;;;;4.64;3.79;;;;;;;19.22;48.41;99917.63;;;;-51
2021/11/25 10:56:15;;;;;;;4.01;3.48;;;;;;;19.23;49.19;99914.34;;;;-49
2021/11/25 10:59:15;;;;;;;4.95;3.45;;;;;;;19.25;49.21;99913.87;;;;-51
2021/11/25 11:02:15;;;;;;;4.10;3.23;;;;;;;19.25;49.20;99914.19;;;;-61
2021/11/25 11:05:21;;;;;;;3.77;3.37;;;;;;;19.24;49.11;99921.27;;;;-60
2021/11/25 11:08:15;;;;;;;8.15;3.90;;;;;;;19.24;48.87;99911.77;;;;-52
2021/11/25 11:11:15;;;;;;;5.29;3.52;;;;;;;19.24;49.04;99912.42;;;;-52
2021/11/25 11:14:27;;;;;;;4.35;3.54;;;;;;;19.23;49.10;99912.00;;;;-52
2021/11/25 11:17:21;;;;;;;3.81;3.51;;;;;;;19.22;49.21;99908.84;;;;-55
2021/11/25 11:20:15;;;;;;;7.06;3.77;;;;;;;19.24;49.18;99913.15;;;;-54
2021/11/25 11:23:15;;;;;;;4.73;3.73;;;;;;;19.25;49.21;99918.58;;;;-53
2021/11/25 11:26:15;;;;;;;6.49;3.67;;;;;;;19.26;49.26;99918.42;;;;-54
2021/11/25 11:29:15;;;;;;;4.11;3.40;;;;;;;19.26;49.39;99914.77;;;;-56
2021/11/25 11:32:16;;;;;;;3.79;3.44;;;;;;;19.27;49.38;99908.73;;;;-57
2021/11/25 11:35:19;;;;;;;3.98;3.55;;;;;;;19.27;49.45;99897.85;;;;-54
2021/11/25 11:38:16;;;;;;;3.95;3.55;;;;;;;19.28;49.56;99895.59;;;;-53
2021/11/25 11:41:15;;;;;;;4.01;3.61;;;;;;;19.29;49.50;99895.56;;;;-48
2021/11/25 11:44:19;;;;;;;6.95;3.91;;;;;;;19.29;49.17;99897.84;;;;-55
2021/11/25 11:47:15;;;;;;;7.98;4.93;;;;;;;19.28;48.70;99902.25;;;;-57
2021/11/25 11:50:15;;;;;;;7.73;5.35;;;;;;;19.27;48.59;99903.53;;;;-51
2021/11/25 11:53:17;;;;;;;7.37;5.81;;;;;;;19.28;48.17;99903.07;;;;-50
2021/11/25 11:56:16;;;;;;;6.77;5.48;;;;;;;19.28;47.97;99903.45;;;;-51
2021/11/25 11:59:15;;;;;;;15.25;5.87;;;;;;;19.28;47.83;99894.70;;;;-49
2021/11/25 12:02:15;;;;;;;8.01;5.19;;;;;;;19.29;47.51;99890.87;;;;-56
2021/11/25 12:05:15;;;;;;;7.09;4.63;;;;;;;19.32;47.92;99890.37;;;;-48
2021/11/25 12:08:15;;;;;;;5.13;4.42;;;;;;;19.33;48.09;99887.20;;;;-48
2021/11/25 12:11:15;;;;;;;4.65;4.14;;;;;;;19.35;48.20;99887.69;;;;-59
2021/11/25 12:14:15;;;;;;;5.69;4.35;;;;;;;19.36;48.27;99886.37;;;;-49
2021/11/25 12:17:15;;;;;;;4.54;4.12;;;;;;;19.37;48.30;99879.56;;;;-59
2021/11/25 12:20:15;;;;;;;6.29;4.33;;;;;;;19.39;48.25;99877.92;;;;-50
2021/11/25 12:23:15;;;;;;;4.71;4.23;;;;;;;19.42;48.33;99870.84;;;;-49
2021/11/25 12:26:15;;;;;;;5.53;4.25;;;;;;;19.42;48.37;99862.30;;;;-48
2021/11/25 12:29:15;;;;;;;4.89;4.17;;;;;;;19.43;48.34;99856.22;;;;-49
2021/11/25 12:32:23;;;;;;;5.73;4.39;;;;;;;19.45;48.32;99852.73;;;;-55
2021/11/25 12:35:17;;;;;;;5.27;4.28;;;;;;;19.46;48.46;99848.41;;;;-56
2021/11/25 12:38:15;;;;;;;5.59;3.99;;;;;;;19.48;48.49;99849.94;;;;-49
2021/11/25 12:41:15;;;;;;;6.70;4.41;;;;;;;19.48;48.34;99846.84;;;;-48
2021/11/25 12:44:15;;;;;;;4.85;4.33;;;;;;;19.50;48.43;99848.79;;;;-49
2021/11/25 12:47:15;;;;;;;5.22;3.89;;;;;;;19.52;48.36;99844.08;;;;-59
2021/11/25 12:50:15;;;;;;;4.46;4.05;;;;;;;19.53;48.46;99835.69;;;;-59
2021/11/25 12:53:15;;;;;;;4.79;3.85;;;;;;;19.54;48.47;99832.36;;;;-59
2021/11/25 12:56:16;;;;;;;4.71;4.18;;;;;;;19.56;48.40;99826.02;;;;-56
2021/11/25 12:59:15;;;;;;;4.59;4.17;;;;;;;19.58;48.45;99825.11;;;;-56
2021/11/25 13:02:15;;;;;;;4.57;4.17;;;;;;;19.58;48.36;99829.91;;;;-59
2021/11/25 13:05:15;;;;;;;4.78;4.03;;;;;;;19.59;48.42;99834.30;;;;-59
2021/11/25 13:08:15;;;;;;;4.53;4.13;;;;;;;19.61;48.38;99838.53;;;;-59
2021/11/25 13:11:16;;;;;;;4.48;4.05;;;;;;;19.61;48.30;99835.84;;;;-50
2021/11/25 13:14:17;;;;;;;4.51;4.11;;;;;;;19.62;48.38;99836.88;;;;-51
2021/11/25 13:17:15;;;;;;;4.75;4.27;;;;;;;19.62;48.51;99836.64;;;;-57
2021/11/25 13:20:15;;;;;;;4.73;4.11;;;;;;;19.64;48.30;99840.70;;;;-56
2021/11/25 13:23:15;;;;;;;4.43;4.03;;;;;;;19.63;48.30;99839.83;;;;-59
2021/11/25 13:26:15;;;;;;;4.54;4.11;;;;;;;19.64;48.43;99835.91;;;;-50
2021/11/25 13:29:18;;;;;;;5.93;4.29;;;;;;;19.64;48.38;99836.48;;;;-59
2021/11/25 13:32:15;;;;;;;4.83;4.33;;;;;;;19.64;48.43;99838.67;;;;-50
2021/11/25 13:35:16;;;;;;;4.86;4.34;;;;;;;19.64;48.32;99836.06;;;;-59
2021/11/25 13:38:15;;;;;;;4.89;4.39;;;;;;;19.64;48.33;99834.84;;;;-59
2021/11/25 13:41:15;;;;;;;5.01;4.50;;;;;;;19.63;48.41;99828.52;;;;-54
2021/11/25 13:44:15;;;;;;;4.76;4.23;;;;;;;19.66;48.67;99833.79;;;;-49
2021/11/25 13:47:20;;;;;;;4.48;4.08;;;;;;;19.67;48.81;99837.12;;;;-53
2021/11/25 13:50:15;;;;;;;5.32;4.23;;;;;;;19.68;48.86;99831.66;;;;-51
2021/11/25 13:53:15;;;;;;;4.78;4.30;;;;;;;19.69;48.97;99830.02;;;;-52
2021/11/25 13:56:15;;;;;;;5.03;4.52;;;;;;;19.69;48.98;99822.87;;;;-55
2021/11/25 13:59:18;;;;;;;6.15;4.66;;;;;;;19.69;49.12;99820.83;;;;-53
2021/11/25 14:02:15;;;;;;;5.09;4.39;;;;;;;19.70;48.96;99820.11;;;;-58
2021/11/25 14:05:15;;;;;;;5.24;4.59;;;;;;;19.70;48.93;99823.72;;;;-57
2021/11/25 14:08:15;;;;;;;4.96;4.39;;;;;;;19.71;48.99;99824.36;;;;-57
2021/11/25 14:11:15;;;;;;;5.31;4.63;;;;;;;19.72;48.97;99826.56;;;;-55
2021/11/25 14:14:15;;;;;;;5.09;4.52;;;;;;;19.71;49.02;99829.64;;;;-56
2021/11/25 14:17:15;;;;;;;5.95;4.27;;;;;;;19.72;49.08;99832.17;;;;-57
2021/11/25 14:20:15;;;;;;;4.96;4.46;;;;;;;19.73;49.15;99836.86;;;;-55
2021/11/25 14:23:15;;;;;;;4.94;4.33;;;;;;;19.72;49.11;99835.83;;;;-53
2021/11/25 14:26:15;;;;;;;8.00;4.61;;;;;;;19.72;48.88;99837.45;;;;-52
2021/11/25 14:32:15;;;;;;;5.03;4.53;;;;;;;19.71;49.06;99839.14;;;;-50
2021/11/25 14:35:15;;;;;;;4.74;4.25;;;;;;;19.72;49.10;99836.31;;;;-52
2021/11/25 14:38:15;;;;;;;5.68;4.45;;;;;;;19.71;49.02;99830.84;;;;-53
2021/11/25 14:41:15;;;;;;;5.59;4.31;;;;;;;19.72;49.18;99828.11;;;;-54
2021/11/25 14:44:15;;;;;;;5.59;4.48;;;;;;;19.74;49.17;99821.02;;;;-47
2021/11/25 14:47:16;;;;;;;9.43;4.49;;;;;;;19.75;49.42;99822.55;;;;-63
2021/11/25 14:50:15;;;;;;;6.02;4.42;;;;;;;19.75;48.88;99833.67;;;;-53
2021/11/25 14:53:17;;;;;;;4.93;4.43;;;;;;;19.74;48.78;99840.69;;;;-53
2021/11/25 14:56:17;;;;;;;4.85;4.28;;;;;;;19.74;48.83;99845.33;;;;-50
2021/11/25 14:59:15;;;;;;;4.82;4.36;;;;;;;19.72;48.72;99851.43;;;;-52
2021/11/25 15:02:15;;;;;;;4.95;4.31;;;;;;;19.71;48.70;99858.33;;;;-50
2021/11/25 15:05:15;;;;;;;5.60;4.71;;;;;;;19.70;48.72;99855.89;;;;-48
2021/11/25 15:08:15;;;;;;;5.02;4.47;;;;;;;19.69;48.76;99858.08;;;;-56
2021/11/25 15:11:15;;;;;;;4.37;3.97;;;;;;;19.69;48.71;99857.17;;;;-56
2021/11/25 15:14:15;;;;;;;4.71;4.31;;;;;;;19.67;48.86;99855.81;;;;-56
2021/11/25 15:17:15;;;;;;;4.97;4.39;;;;;;;19.67;48.83;99851.02;;;;-54
2021/11/25 15:20:15;;;;;;;4.52;4.12;;;;;;;19.67;48.91;99851.42;;;;-54
2021/11/25 15:23:15;;;;;;;5.90;4.16;;;;;;;19.67;48.56;99842.88;;;;-54
2021/11/25 15:26:15;;;;;;;5.71;4.34;;;;;;;19.67;48.60;99842.64;;;;-55
2021/11/25 15:29:15;;;;;;;6.06;5.46;;;;;;;19.62;46.67;99850.23;;;;-56
2021/11/25 15:32:15;;;;;;;7.68;5.37;;;;;;;19.61;46.92;99857.77;;;;-54
2021/11/25 15:35:17;;;;;;;5.45;4.80;;;;;;;19.63;47.68;99852.99;;;;-51
2021/11/25 15:38:15;;;;;;;5.58;4.63;;;;;;;19.65;48.04;99849.81;;;;-51
2021/11/25 15:41:17;;;;;;;5.45;4.55;;;;;;;19.69;48.24;99855.87;;;;-48
2021/11/25 15:44:15;;;;;;;6.47;4.60;;;;;;;19.71;48.35;99860.05;;;;-49
2021/11/25 15:47:16;;;;;;;7.81;5.56;;;;;;;19.71;47.79;99869.87;;;;-52
2021/11/25 15:50:15;;;;;;;9.25;5.07;;;;;;;19.71;47.86;99872.41;;;;-50
2021/11/25 15:53:15;;;;;;;8.07;4.94;;;;;;;19.73;48.10;99871.82;;;;-49
2021/11/25 15:56:15;;;;;;;6.21;4.50;;;;;;;19.74;48.21;99867.92;;;;-57
2021/11/25 15:59:15;;;;;;;5.13;4.57;;;;;;;19.77;48.39;99875.14;;;;-59
2021/11/25 16:02:15;;;;;;;5.67;4.61;;;;;;;19.78;48.45;99878.08;;;;-59
2021/11/25 16:05:15;;;;;;;4.79;4.33;;;;;;;19.80;48.51;99881.40;;;;-58
2021/11/25 16:08:15;;;;;;;5.15;4.25;;;;;;;19.79;48.53;99884.47;;;;-54
2021/11/25 16:11:15;;;;;;;6.40;4.30;;;;;;;19.82;48.61;99885.27;;;;-55
2021/11/25 16:14:23;;;;;;;5.43;4.57;;;;;;;19.82;48.80;99889.92;;;;-49
2021/11/25 16:17:15;;;;;;;5.11;4.51;;;;;;;19.83;48.68;99885.84;;;;-55
2021/11/25 16:20:15;;;;;;;5.61;4.24;;;;;;;19.83;48.68;99886.16;;;;-56
2021/11/25 16:23:15;;;;;;;5.41;4.35;;;;;;;19.85;48.83;99886.73;;;;-51
2021/11/25 16:26:15;;;;;;;5.61;4.26;;;;;;;19.86;48.83;99886.23;;;;-51
2021/11/25 16:29:16;;;;;;;4.96;4.45;;;;;;;19.86;48.90;99892.43;;;;-51
2021/11/25 16:32:15;;;;;;;5.02;4.50;;;;;;;19.87;48.78;99901.28;;;;-49
2021/11/25 16:35:15;;;;;;;4.99;4.39;;;;;;;19.87;48.78;99902.09;;;;-50
2021/11/25 16:38:15;;;;;;;4.52;4.12;;;;;;;19.88;48.79;99906.06;;;;-50
2021/11/25 16:41:15;;;;;;;4.89;4.39;;;;;;;19.88;48.85;99905.67;;;;-58
2021/11/25 16:44:16;;;;;;;5.05;4.37;;;;;;;19.89;49.02;99899.81;;;;-52
2021/11/25 16:47:32;;;;;;;5.11;4.37;;;;;;;19.91;49.08;99900.63;;;;-49
2021/11/25 16:50:15;;;;;;;6.38;4.32;;;;;;;19.91;49.09;99906.80;;;;-51
2021/11/25 16:53:15;;;;;;;4.65;4.10;;;;;;;19.92;48.89;99915.08;;;;-49
2021/11/25 16:56:15;;;;;;;5.01;4.31;;;;;;;19.92;48.96;99910.77;;;;-52
2021/11/25 16:59:15;;;;;;;4.53;4.13;;;;;;;19.92;48.90;99903.79;;;;-53
2021/11/25 17:02:15;;;;;;;4.69;4.24;;;;;;;19.93;48.98;99896.78;;;;-57